Time;durP1;ratioP1;P1;durP2;ratioP2;P2;SDS_P1;SDS_P2;PMS_P1;PMS_P2;Temp;Humidity;BMP_temperature;BMP_pressure;BME280_temperature;BME280_humidity;BME280_pressure;Samples;Min_cycle;Max_cycle;Signal;HPM_P1;HPM_P2
2023/08/05 00:01:43;;;;;;;;;11.00;10.33;;;;;;;;5013333;28;50886;-58
2023/08/05 00:04:08;;;;;;;;;9.33;9.00;;;;;;;;5013427;28;50928;-58
2023/08/05 00:06:33;;;;;;;;;9.67;9.67;;;;;;;;5013532;28;51122;-60
2023/08/05 00:08:58;;;;;;;;;8.33;8.00;;;;;;;;5013004;28;51041;-58
2023/08/05 00:11:23;;;;;;;;;7.33;6.67;;;;;;;;5012924;28;51061;-58
2023/08/05 00:13:49;;;;;;;;;8.33;7.67;;;;;;;;5013525;28;51295;-58
2023/08/05 00:16:14;;;;;;;;;8.67;8.33;;;;;;;;5013544;28;51143;-58
2023/08/05 00:18:39;;;;;;;;;8.00;8.00;;;;;;;;5013279;28;50938;-58
2023/08/05 00:21:04;;;;;;;;;7.67;7.33;;;;;;;;5010337;28;51308;-55
2023/08/05 00:23:29;;;;;;;;;6.33;6.00;;;;;;;;5013272;28;51075;-58
2023/08/05 00:25:55;;;;;;;;;8.00;8.00;;;;;;;;5015411;28;51060;-58
2023/08/05 00:35:04;;;;;;;;;;;;;;;;;;172714;28;279081880;-58
2023/08/05 00:44:13;;;;;;;;;2.50;2.50;;;;;;;;2;234070360;234070360;-58
2023/08/05 00:53:14;;;;;;;;;7.00;7.00;;;;;;;;2;279083957;279083957;-58
2023/08/05 01:02:23;;;;;;;;;11.50;11.50;;;;;;;;2;234069866;234069866;-57
2023/08/05 01:11:24;;;;;;;;;4.50;4.50;;;;;;;;2;279081836;279081836;-58
2023/08/05 01:20:38;;;;;;;;;5.50;5.50;;;;;;;;2;233920935;233920935;-57
2023/08/05 01:29:38;;;;;;;;;5.00;5.00;;;;;;;;2;279081318;279081318;-57
2023/08/05 01:38:48;;;;;;;;;4.50;4.50;;;;;;;;2;234068526;234068526;-58
2023/08/05 01:47:01;;;;;;;;;4.50;4.50;;;;;;;;2;279081338;279081338;-57
2023/08/05 01:49:26;;;;;;;;;6.00;5.67;;;;;;;;5013697;28;51116;-58
2023/08/05 01:51:51;;;;;;;;;6.33;6.33;;;;;;;;5015331;28;51855;-58
2023/08/05 01:54:17;;;;;;;;;7.67;7.00;;;;;;;;5015813;28;51070;-58
2023/08/05 01:56:42;;;;;;;;;6.00;6.00;;;;;;;;5015264;28;51197;-57
2023/08/05 01:59:07;;;;;;;;;6.00;6.00;;;;;;;;5015958;28;51027;-58
2023/08/05 02:01:39;;;;;;;;;8.33;8.00;;;;;;;;5015219;28;51982;-58
2023/08/05 02:04:04;;;;;;;;;7.33;7.00;;;;;;;;5015811;28;51115;-58
2023/08/05 02:06:29;;;;;;;;;5.67;5.00;;;;;;;;5015497;28;51360;-58
2023/08/05 02:08:54;;;;;;;;;7.00;7.00;;;;;;;;5007203;28;51342;-58
2023/08/05 02:11:20;;;;;;;;;7.00;6.00;;;;;;;;4995026;28;51077;-57
2023/08/05 02:13:45;;;;;;;;;5.00;5.00;;;;;;;;4994449;28;51086;-58
2023/08/05 02:16:10;;;;;;;;;7.33;7.33;;;;;;;;4995388;28;51010;-57
2023/08/05 02:18:35;;;;;;;;;6.00;6.00;;;;;;;;4995857;28;51113;-57
2023/08/05 02:21:00;;;;;;;;;5.00;5.00;;;;;;;;5002785;28;51194;-58
2023/08/05 02:23:25;;;;;;;;;6.00;6.00;;;;;;;;5013164;28;51150;-57
2023/08/05 02:25:51;;;;;;;;;6.00;6.00;;;;;;;;5015742;28;51078;-58
2023/08/05 02:28:16;;;;;;;;;7.00;5.00;;;;;;;;5023236;28;51147;-58
2023/08/05 02:30:41;;;;;;;;;7.33;6.33;;;;;;;;5014793;28;51151;-58
2023/08/05 02:33:06;;;;;;;;;8.00;6.33;;;;;;;;5033593;28;50995;-58
2023/08/05 02:35:31;;;;;;;;;6.00;5.67;;;;;;;;5052942;28;9019;-56
2023/08/05 02:37:57;;;;;;;;;6.00;6.00;;;;;;;;5053360;28;8811;-57
2023/08/05 02:40:22;;;;;;;;;5.00;5.00;;;;;;;;5052071;28;8851;-57
2023/08/05 02:42:47;;;;;;;;;4.00;3.67;;;;;;;;5053282;28;8845;-57
2023/08/05 02:45:12;;;;;;;;;7.67;7.67;;;;;;;;5053207;28;8787;-57
2023/08/05 02:47:38;;;;;;;;;7.67;6.67;;;;;;;;5053049;28;8803;-56
2023/08/05 02:50:03;;;;;;;;;4.67;4.00;;;;;;;;5052011;28;9565;-56
2023/08/05 02:52:28;;;;;;;;;6.67;5.67;;;;;;;;5052403;28;8818;-56
2023/08/05 02:54:53;;;;;;;;;5.00;5.00;;;;;;;;5047413;28;50983;-56
2023/08/05 02:57:19;;;;;;;;;5.00;5.00;;;;;;;;5014713;28;50940;-58
2023/08/05 02:59:44;;;;;;;;;6.00;5.33;;;;;;;;5014429;28;51731;-58
2023/08/05 03:02:09;;;;;;;;;5.67;4.00;;;;;;;;5014693;28;50987;-57
2023/08/05 03:04:34;;;;;;;;;6.00;6.00;;;;;;;;5014648;28;50944;-58
2023/08/05 03:07:00;;;;;;;;;5.00;5.00;;;;;;;;5014908;28;51268;-58
2023/08/05 03:09:25;;;;;;;;;6.00;6.00;;;;;;;;5014245;28;51860;-58
2023/08/05 03:11:50;;;;;;;;;6.67;6.67;;;;;;;;5014238;28;51016;-57
2023/08/05 03:14:15;;;;;;;;;8.33;8.00;;;;;;;;5017338;28;51343;-58
2023/08/05 03:16:41;;;;;;;;;12.00;10.67;;;;;;;;5014465;28;50840;-59
2023/08/05 03:19:06;;;;;;;;;7.33;7.33;;;;;;;;5014167;28;50977;-58
2023/08/05 03:21:31;;;;;;;;;7.00;6.33;;;;;;;;5014486;28;50928;-59
2023/08/05 03:23:56;;;;;;;;;6.67;6.00;;;;;;;;5014499;28;51005;-58
2023/08/05 03:26:21;;;;;;;;;7.67;7.67;;;;;;;;5014325;28;52486;-58
2023/08/05 03:28:47;;;;;;;;;7.00;7.00;;;;;;;;5014090;28;52207;-58
2023/08/05 03:31:12;;;;;;;;;6.00;5.67;;;;;;;;5014869;28;51098;-58
2023/08/05 03:33:37;;;;;;;;;5.00;5.00;;;;;;;;5017016;28;51028;-58
2023/08/05 03:36:02;;;;;;;;;6.00;6.00;;;;;;;;5017177;28;50875;-58
2023/08/05 03:38:27;;;;;;;;;7.00;6.00;;;;;;;;5012720;28;52081;-58
2023/08/05 03:40:53;;;;;;;;;8.00;7.00;;;;;;;;5014925;28;51041;-56
2023/08/05 03:43:18;;;;;;;;;5.33;5.33;;;;;;;;5018379;28;51052;-58
2023/08/05 03:45:48;;;;;;;;;6.00;6.00;;;;;;;;5017059;28;50909;-58
2023/08/05 03:48:13;;;;;;;;;5.33;5.33;;;;;;;;5014589;28;51079;-59
2023/08/05 03:50:38;;;;;;;;;5.67;5.67;;;;;;;;5014727;28;50999;-59
2023/08/05 03:53:04;;;;;;;;;5.33;5.00;;;;;;;;5013923;28;51323;-58
2023/08/05 03:55:29;;;;;;;;;6.00;5.67;;;;;;;;5013501;28;51037;-58
2023/08/05 03:57:54;;;;;;;;;7.00;5.33;;;;;;;;5014555;28;52641;-60
2023/08/05 04:00:20;;;;;;;;;7.00;6.00;;;;;;;;5013598;28;51086;-58
2023/08/05 04:02:46;;;;;;;;;6.00;5.00;;;;;;;;5012048;28;50968;-58
2023/08/05 04:05:11;;;;;;;;;5.00;4.00;;;;;;;;5013876;28;51172;-58
2023/08/05 04:07:36;;;;;;;;;8.00;7.00;;;;;;;;5013878;28;51865;-59
2023/08/05 04:10:02;;;;;;;;;4.00;4.00;;;;;;;;4995530;28;51063;-58
2023/08/05 04:12:28;;;;;;;;;4.33;4.33;;;;;;;;4993649;28;50833;-58
2023/08/05 04:14:55;;;;;;;;;4.00;4.00;;;;;;;;4995009;28;51198;-58
2023/08/05 04:17:21;;;;;;;;;4.00;4.00;;;;;;;;4995444;28;51186;-58
2023/08/05 04:19:47;;;;;;;;;4.00;4.00;;;;;;;;4994468;28;51100;-57
2023/08/05 04:22:13;;;;;;;;;5.00;4.67;;;;;;;;5001970;28;51312;-58
2023/08/05 04:24:41;;;;;;;;;3.00;3.00;;;;;;;;5012895;28;50832;-58
2023/08/05 04:27:06;;;;;;;;;5.33;5.00;;;;;;;;5012891;28;51967;-58
2023/08/05 04:29:31;;;;;;;;;5.00;5.00;;;;;;;;5012909;28;50830;-59
2023/08/05 04:38:47;;;;;;;;;;;;;;;;;;2076223;28;261073684;-57
2023/08/05 04:48:41;;;;;;;;;3.50;3.50;;;;;;;;2;315095467;315095467;-55
2023/08/05 04:55:11;;;;;;;;;2.00;2.00;;;;;;;;2;261077869;261077869;-58
2023/08/05 04:57:36;;;;;;;;;4.33;4.00;;;;;;;;5009275;28;51816;-58
2023/08/05 05:00:01;;;;;;;;;5.00;5.00;;;;;;;;4682662;28;9501121;-58
2023/08/05 05:02:26;;;;;;;;;4.67;4.67;;;;;;;;5037712;28;51097;-58
2023/08/05 05:04:51;;;;;;;;;6.00;6.00;;;;;;;;5050883;28;8899;-58
2023/08/05 05:07:18;;;;;;;;;4.67;4.67;;;;;;;;5050661;28;10277;-57
2023/08/05 05:09:43;;;;;;;;;5.33;4.67;;;;;;;;4947401;28;2498275;-58
2023/08/05 05:12:08;;;;;;;;;4.00;4.00;;;;;;;;4992595;28;51015;-58
2023/08/05 05:14:34;;;;;;;;;5.00;4.00;;;;;;;;4993463;28;51227;-58
2023/08/05 05:18:29;;;;;;;;;3.00;2.50;;;;;;;;4550440;28;102658284;-57
2023/08/05 05:20:54;;;;;;;;;6.67;5.00;;;;;;;;4985791;28;342604;-58
2023/08/05 05:23:20;;;;;;;;;4.33;4.33;;;;;;;;4996302;28;50881;-58
2023/08/05 05:25:45;;;;;;;;;5.25;4.25;;;;;;;;4995952;28;51030;-57
2023/08/05 05:28:10;;;;;;;;;5.33;5.00;;;;;;;;4996603;28;50912;-57
2023/08/05 05:30:35;;;;;;;;;5.00;5.00;;;;;;;;5011541;28;50849;-57
2023/08/05 05:33:01;;;;;;;;;5.67;5.67;;;;;;;;5016011;28;51022;-57
2023/08/05 05:35:26;;;;;;;;;4.67;4.67;;;;;;;;5016650;28;51070;-56
2023/08/05 05:37:51;;;;;;;;;4.00;4.00;;;;;;;;5016273;28;51107;-57
2023/08/05 05:40:16;;;;;;;;;7.33;6.00;;;;;;;;5019447;28;51148;-57
2023/08/05 05:42:41;;;;;;;;;5.00;5.00;;;;;;;;5017884;28;51157;-58
2023/08/05 05:45:07;;;;;;;;;5.00;5.00;;;;;;;;5015963;28;51326;-58
2023/08/05 05:47:32;;;;;;;;;4.33;4.33;;;;;;;;5014581;28;51233;-56
2023/08/05 05:49:57;;;;;;;;;5.00;4.67;;;;;;;;5014154;28;51361;-58
2023/08/05 05:52:22;;;;;;;;;7.33;6.00;;;;;;;;5015828;28;51304;-58
2023/08/05 05:54:48;;;;;;;;;5.00;5.00;;;;;;;;5015660;28;51215;-58
2023/08/05 05:57:13;;;;;;;;;4.67;4.67;;;;;;;;5015811;28;51096;-58
2023/08/05 05:59:42;;;;;;;;;6.00;5.00;;;;;;;;5015351;28;51321;-58
2023/08/05 06:02:08;;;;;;;;;4.00;4.00;;;;;;;;5011722;28;51015;-58
2023/08/05 06:04:33;;;;;;;;;3.00;3.00;;;;;;;;5012786;28;51214;-59
2023/08/05 06:07:01;;;;;;;;;5.00;5.00;;;;;;;;5015032;28;51018;-58
2023/08/05 06:09:27;;;;;;;;;4.00;4.00;;;;;;;;5012403;28;51692;-58
2023/08/05 06:11:52;;;;;;;;;3.67;3.67;;;;;;;;4999340;28;51070;-59
2023/08/05 06:14:18;;;;;;;;;5.00;4.67;;;;;;;;5015238;28;50884;-58
2023/08/05 06:16:44;;;;;;;;;5.00;4.00;;;;;;;;5015273;28;51157;-58
2023/08/05 06:19:09;;;;;;;;;5.00;3.33;;;;;;;;5014746;28;51946;-59
2023/08/05 06:21:34;;;;;;;;;3.33;3.00;;;;;;;;5015111;28;51038;-59
2023/08/05 06:23:59;;;;;;;;;5.00;4.00;;;;;;;;5015107;28;51080;-59
2023/08/05 06:26:26;;;;;;;;;4.00;4.00;;;;;;;;5015014;28;51064;-59
2023/08/05 06:28:52;;;;;;;;;3.67;3.67;;;;;;;;5014410;28;51899;-58
2023/08/05 06:31:17;;;;;;;;;3.67;3.67;;;;;;;;5014916;28;51315;-58
2023/08/05 06:33:42;;;;;;;;;5.33;5.33;;;;;;;;5014760;28;51099;-58
2023/08/05 06:36:07;;;;;;;;;7.33;7.00;;;;;;;;5015070;28;51174;-58
2023/08/05 06:38:32;;;;;;;;;5.00;4.67;;;;;;;;5014655;28;51254;-58
2023/08/05 06:40:58;;;;;;;;;6.67;5.00;;;;;;;;5013464;28;50894;-58
2023/08/05 06:43:23;;;;;;;;;6.00;6.00;;;;;;;;5015087;28;51086;-59
2023/08/05 06:45:48;;;;;;;;;4.33;4.33;;;;;;;;5014989;28;51381;-59
2023/08/05 06:48:14;;;;;;;;;3.67;3.67;;;;;;;;5014465;28;52545;-58
2023/08/05 06:50:39;;;;;;;;;4.00;4.00;;;;;;;;5014627;28;50983;-59
2023/08/05 06:53:04;;;;;;;;;4.67;4.33;;;;;;;;5014502;28;50990;-59
2023/08/05 06:55:30;;;;;;;;;4.00;4.00;;;;;;;;5014509;28;51333;-59
2023/08/05 06:57:55;;;;;;;;;3.00;3.00;;;;;;;;5014254;28;50896;-58
2023/08/05 07:00:20;;;;;;;;;4.33;4.33;;;;;;;;5014497;28;51017;-59
2023/08/05 07:03:05;;;;;;;;;;;;;;;;;;1384431;28;124556515;-59
2023/08/05 07:05:30;;;;;;;;;5.33;5.33;;;;;;;;3827152;28;34255945;-58
2023/08/05 07:07:55;;;;;;;;;6.67;4.67;;;;;;;;5014324;28;51163;-58
2023/08/05 07:10:20;;;;;;;;;4.00;4.00;;;;;;;;5014200;28;51286;-58
2023/08/05 07:12:45;;;;;;;;;5.00;4.00;;;;;;;;5014252;28;51097;-59
2023/08/05 07:15:11;;;;;;;;;4.00;3.00;;;;;;;;5014541;28;51097;-59
2023/08/05 07:17:36;;;;;;;;;3.00;3.00;;;;;;;;5014442;28;51104;-58
2023/08/05 07:20:04;;;;;;;;;1.00;1.00;;;;;;;;5012999;28;51456;-58
2023/08/05 07:22:29;;;;;;;;;3.67;2.00;;;;;;;;5014190;28;50914;-58
2023/08/05 07:24:55;;;;;;;;;4.33;4.00;;;;;;;;5014254;28;51129;-58
2023/08/05 07:27:20;;;;;;;;;2.00;2.00;;;;;;;;5014128;28;51033;-58
2023/08/05 07:29:45;;;;;;;;;2.33;2.33;;;;;;;;5013909;28;51207;-58
2023/08/05 07:32:10;;;;;;;;;3.00;2.00;;;;;;;;5014138;28;50920;-60
2023/08/05 07:34:35;;;;;;;;;3.33;3.00;;;;;;;;5014296;28;51224;-59
2023/08/05 07:37:01;;;;;;;;;2.00;2.00;;;;;;;;5013513;28;51098;-58
2023/08/05 07:39:33;;;;;;;;;2.00;2.00;;;;;;;;5013788;28;51774;-58
2023/08/05 07:41:58;;;;;;;;;3.00;2.33;;;;;;;;5013592;28;51303;-58
2023/08/05 07:44:23;;;;;;;;;1.67;1.67;;;;;;;;5013821;28;51165;-58
2023/08/05 07:46:52;;;;;;;;;2.00;2.00;;;;;;;;5014024;28;51102;-58
2023/08/05 07:49:17;;;;;;;;;2.67;1.67;;;;;;;;5013382;28;52846;-58
2023/08/05 07:51:46;;;;;;;;;2.33;2.00;;;;;;;;5013597;28;50902;-58
2023/08/05 07:54:11;;;;;;;;;3.00;3.00;;;;;;;;5013966;28;51113;-58
2023/08/05 07:56:39;;;;;;;;;2.00;2.00;;;;;;;;5013259;28;50951;-57
2023/08/05 07:59:04;;;;;;;;;2.00;2.00;;;;;;;;5013406;28;52040;-57
2023/08/05 08:01:31;;;;;;;;;2.00;2.00;;;;;;;;5013465;28;51272;-57
2023/08/05 08:04:01;;;;;;;;;1.00;1.00;;;;;;;;5013800;28;51061;-57
2023/08/05 08:06:27;;;;;;;;;1.00;1.00;;;;;;;;5013528;28;50997;-60
2023/08/05 08:08:52;;;;;;;;;1.00;1.00;;;;;;;;5013144;28;51826;-57
2023/08/05 08:11:17;;;;;;;;;3.00;3.00;;;;;;;;5012747;28;51256;-57
2023/08/05 08:13:42;;;;;;;;;2.67;2.67;;;;;;;;5010564;28;51870;-57
2023/08/05 08:16:08;;;;;;;;;1.67;1.67;;;;;;;;4998543;28;51016;-57
2023/08/05 08:18:33;;;;;;;;;2.67;2.00;;;;;;;;4993271;28;52013;-57
2023/08/05 08:20:58;;;;;;;;;1.67;1.67;;;;;;;;4993195;28;50985;-57
2023/08/05 08:23:24;;;;;;;;;2.00;2.00;;;;;;;;4993376;28;51072;-58
2023/08/05 08:25:50;;;;;;;;;2.00;2.00;;;;;;;;4993017;28;51013;-57
2023/08/05 08:28:17;;;;;;;;;1.00;1.00;;;;;;;;4993308;28;51093;-57
2023/08/05 08:30:53;;;;;;;;;1.00;1.00;;;;;;;;5008259;28;51046;-57
2023/08/05 08:33:18;;;;;;;;;1.67;1.67;;;;;;;;5012766;28;51298;-58
2023/08/05 08:35:43;;;;;;;;;2.00;2.00;;;;;;;;5012778;28;51231;-58
2023/08/05 08:38:09;;;;;;;;;1.00;1.00;;;;;;;;5012824;28;50940;-58
2023/08/05 08:40:35;;;;;;;;;2.33;2.33;;;;;;;;5012288;28;50956;-58
2023/08/05 08:43:01;;;;;;;;;2.67;2.00;;;;;;;;5012861;28;51066;-58
2023/08/05 08:45:29;;;;;;;;;4.00;3.33;;;;;;;;5012821;28;50999;-58
2023/08/05 08:47:54;;;;;;;;;2.00;2.00;;;;;;;;5011909;28;51228;-58
2023/08/05 08:50:19;;;;;;;;;4.00;3.00;;;;;;;;5011929;28;50978;-58
2023/08/05 08:52:46;;;;;;;;;2.00;2.00;;;;;;;;5012793;28;51601;-58
2023/08/05 08:55:12;;;;;;;;;2.00;2.00;;;;;;;;5012440;28;50860;-59
2023/08/05 08:57:37;;;;;;;;;3.00;3.00;;;;;;;;5012275;28;51911;-58
2023/08/05 09:00:03;;;;;;;;;5.00;4.00;;;;;;;;5012129;28;51058;-57
2023/08/05 09:02:28;;;;;;;;;2.67;2.67;;;;;;;;5012574;28;50999;-58
2023/08/05 09:04:54;;;;;;;;;3.00;2.33;;;;;;;;5012605;28;51299;-59
2023/08/05 09:07:19;;;;;;;;;3.00;2.00;;;;;;;;5012076;28;51625;-57
2023/08/05 09:09:48;;;;;;;;;4.00;3.67;;;;;;;;5012217;28;51034;-59
2023/08/05 09:12:14;;;;;;;;;4.00;4.00;;;;;;;;5012190;28;51169;-58
2023/08/05 09:14:39;;;;;;;;;2.00;2.00;;;;;;;;5012192;28;51336;-57
2023/08/05 09:17:05;;;;;;;;;3.33;2.33;;;;;;;;5011942;28;51786;-58
2023/08/05 09:19:30;;;;;;;;;3.00;3.00;;;;;;;;5012116;28;51239;-58
2023/08/05 09:21:59;;;;;;;;;3.00;3.00;;;;;;;;5012235;28;51171;-59
2023/08/05 09:24:25;;;;;;;;;3.00;2.67;;;;;;;;5011024;28;51340;-58
2023/08/05 09:26:57;;;;;;;;;2.00;2.00;;;;;;;;5011778;28;51537;-58
2023/08/05 09:29:23;;;;;;;;;1.67;1.67;;;;;;;;5011863;28;51111;-58
2023/08/05 09:31:58;;;;;;;;;2.00;2.00;;;;;;;;5012131;28;50917;-59
2023/08/05 09:34:30;;;;;;;;;1.33;1.33;;;;;;;;5011898;28;50889;-58
2023/08/05 09:36:56;;;;;;;;;3.00;3.00;;;;;;;;5011541;28;51149;-59
2023/08/05 09:45:51;;;;;;;;;;;;;;;;;;2940377;28;261077862;-58
2023/08/05 09:48:18;;;;;;;;;2.00;2.00;;;;;;;;5008771;28;51025;-59
2023/08/05 09:50:43;;;;;;;;;3.00;3.00;;;;;;;;5011675;28;50863;-58
2023/08/05 09:53:10;;;;;;;;;4.00;3.00;;;;;;;;5011758;28;51172;-57
2023/08/05 09:55:38;;;;;;;;;11.00;9.67;;;;;;;;5011240;28;51105;-57
2023/08/05 09:58:10;;;;;;;;;4.00;3.00;;;;;;;;5011242;28;51053;-57
2023/08/05 10:00:35;;;;;;;;;3.00;2.00;;;;;;;;5013399;28;51257;-57
2023/08/05 10:03:04;;;;;;;;;2.00;2.00;;;;;;;;5015157;28;50896;-57
2023/08/05 10:05:30;;;;;;;;;2.00;2.00;;;;;;;;5015870;28;51075;-57
2023/08/05 10:07:58;;;;;;;;;1.67;1.00;;;;;;;;5014570;28;51872;-57
2023/08/05 10:10:24;;;;;;;;;1.00;1.00;;;;;;;;4994919;28;51022;-59
2023/08/05 10:13:01;;;;;;;;;4.67;4.00;;;;;;;;4995278;28;51075;-59
2023/08/05 10:15:28;;;;;;;;;4.00;3.00;;;;;;;;5005484;28;51293;-59
2023/08/05 10:17:54;;;;;;;;;4.00;4.00;;;;;;;;4994708;28;51168;-59
2023/08/05 10:20:19;;;;;;;;;3.67;3.33;;;;;;;;4995066;28;50980;-59
2023/08/05 10:23:04;;;;;;;;;3.00;3.00;;;;;;;;4994869;28;51136;-57
2023/08/05 10:26:02;;;;;;;;;7.00;5.67;;;;;;;;4995139;28;51265;-58
2023/08/05 10:28:33;;;;;;;;;3.00;3.00;;;;;;;;4991521;28;53167;-58
2023/08/05 10:31:01;;;;;;;;;3.33;3.00;;;;;;;;5014575;28;51141;-58
2023/08/05 10:33:28;;;;;;;;;6.00;5.00;;;;;;;;5014639;28;50861;-58
2023/08/05 10:36:00;;;;;;;;;4.33;4.00;;;;;;;;5014500;28;51161;-58
2023/08/05 10:38:25;;;;;;;;;3.67;3.67;;;;;;;;5014475;28;52069;-58
2023/08/05 10:41:03;;;;;;;;;3.00;2.67;;;;;;;;5013896;28;50806;-58
2023/08/05 10:43:31;;;;;;;;;4.00;4.00;;;;;;;;5014584;28;50948;-58
2023/08/05 10:45:57;;;;;;;;;7.33;7.00;;;;;;;;5014733;28;50977;-58
2023/08/05 10:48:29;;;;;;;;;3.00;3.00;;;;;;;;5013707;28;51854;-58
2023/08/05 10:50:55;;;;;;;;;5.00;4.00;;;;;;;;4993170;28;638677;-59
2023/08/05 10:53:21;;;;;;;;;3.00;2.33;;;;;;;;5013910;28;50917;-58
2023/08/05 10:55:53;;;;;;;;;4.00;4.00;;;;;;;;5014278;28;51087;-58
2023/08/05 10:58:23;;;;;;;;;6.67;6.00;;;;;;;;5013571;28;50900;-58
2023/08/05 11:00:56;;;;;;;;;4.00;4.00;;;;;;;;5014011;28;51094;-59
2023/08/05 11:03:31;;;;;;;;;3.33;3.33;;;;;;;;5013966;28;51040;-57
2023/08/05 11:06:00;;;;;;;;;5.00;4.00;;;;;;;;5014437;28;51051;-59
2023/08/05 11:08:26;;;;;;;;;7.00;5.67;;;;;;;;5013707;28;51962;-58
2023/08/05 11:10:51;;;;;;;;;5.00;5.00;;;;;;;;4999501;28;50979;-58
2023/08/05 11:13:17;;;;;;;;;3.00;3.00;;;;;;;;4993434;28;51125;-58
2023/08/05 11:15:59;;;;;;;;;6.00;5.00;;;;;;;;4994033;28;51243;-57
2023/08/05 11:18:24;;;;;;;;;5.00;4.33;;;;;;;;5001966;28;52904;-58
2023/08/05 11:20:50;;;;;;;;;5.67;4.67;;;;;;;;5013579;28;51092;-57
2023/08/05 11:23:15;;;;;;;;;3.33;2.67;;;;;;;;5013599;28;50891;-60
2023/08/05 11:25:43;;;;;;;;;4.00;4.00;;;;;;;;5013223;28;50927;-58
2023/08/05 11:28:09;;;;;;;;;5.00;4.67;;;;;;;;5013221;28;51876;-58
2023/08/05 11:30:38;;;;;;;;;5.33;5.33;;;;;;;;5013107;28;50980;-59
2023/08/05 11:33:03;;;;;;;;;5.00;4.00;;;;;;;;5013374;28;51106;-59
2023/08/05 11:35:28;;;;;;;;;7.00;6.67;;;;;;;;5013309;28;50989;-58
2023/08/05 11:37:54;;;;;;;;;5.00;5.00;;;;;;;;5012952;28;51844;-58
2023/08/05 11:40:19;;;;;;;;;5.00;5.00;;;;;;;;4523111;28;14105224;-58
2023/08/05 11:42:45;;;;;;;;;4.00;3.00;;;;;;;;4993716;28;51206;-58
2023/08/05 11:45:12;;;;;;;;;5.00;5.00;;;;;;;;4993314;28;50978;-57
2023/08/05 11:47:38;;;;;;;;;6.00;6.00;;;;;;;;4993291;28;51075;-58
2023/08/05 11:50:03;;;;;;;;;7.00;5.00;;;;;;;;3364053;28;46970581;-58
2023/08/05 11:52:28;;;;;;;;;6.67;6.67;;;;;;;;4769077;28;6833577;-58
2023/08/05 11:54:58;;;;;;;;;5.00;4.67;;;;;;;;5012867;28;51003;-58
2023/08/05 11:57:23;;;;;;;;;4.75;4.25;;;;;;;;4144149;28;24274494;-58
2023/08/05 11:59:49;;;;;;;;;4.33;4.00;;;;;;;;5012704;28;50918;-59
2023/08/05 12:02:15;;;;;;;;;3.75;3.50;;;;;;;;5012762;28;50875;-58
2023/08/05 12:04:48;;;;;;;;;4.00;4.00;;;;;;;;5013052;28;51139;-59
2023/08/05 12:07:15;;;;;;;;;4.00;4.00;;;;;;;;4788080;28;6489741;-59
2023/08/05 12:09:42;;;;;;;;;4.75;4.75;;;;;;;;970263;28;111330179;-59
2023/08/05 12:12:14;;;;;;;;;5.33;5.33;;;;;;;;4986596;28;839092;-58
2023/08/05 12:14:39;;;;;;;;;4.67;4.67;;;;;;;;5009916;28;51338;-59
2023/08/05 12:17:05;;;;;;;;;2.33;2.33;;;;;;;;4991596;28;648667;-59
2023/08/05 12:19:30;;;;;;;;;4.33;4.33;;;;;;;;4999434;28;412697;-60
2023/08/05 12:21:55;;;;;;;;;6.00;5.00;;;;;;;;5013009;28;51120;-59
2023/08/05 12:24:20;;;;;;;;;6.67;5.33;;;;;;;;5012206;28;51299;-59
2023/08/05 12:26:46;;;;;;;;;5.00;4.00;;;;;;;;5012691;28;51115;-59
2023/08/05 12:30:09;;;;;;;;;;;;;;;;;;2248384;28;138695133;-58
2023/08/05 12:32:35;;;;;;;;;4.00;4.00;;;;;;;;5009353;28;51052;-58
2023/08/05 12:35:01;;;;;;;;;6.00;6.00;;;;;;;;4951427;28;1784687;-58
2023/08/05 12:37:26;;;;;;;;;4.50;4.50;;;;;;;;5010690;28;51152;-57
2023/08/05 12:39:52;;;;;;;;;5.67;5.67;;;;;;;;5012476;28;51035;-61
2023/08/05 12:42:17;;;;;;;;;6.00;6.00;;;;;;;;5012248;28;51117;-59
2023/08/05 12:44:42;;;;;;;;;8.00;8.00;;;;;;;;5012529;28;51249;-57
2023/08/05 12:47:07;;;;;;;;;7.00;6.00;;;;;;;;5012097;28;50999;-57
2023/08/05 12:49:32;;;;;;;;;6.00;6.00;;;;;;;;5012782;28;51056;-57
2023/08/05 12:51:58;;;;;;;;;5.33;5.33;;;;;;;;5012016;28;51174;-57
2023/08/05 12:54:23;;;;;;;;;5.00;5.00;;;;;;;;5011778;28;51138;-62
2023/08/05 12:56:48;;;;;;;;;6.00;5.33;;;;;;;;5002765;28;299206;-59
2023/08/05 13:03:15;;;;;;;;;;;;;;;;;;564286;28;279084375;-59
2023/08/05 13:05:40;;;;;;;;;8.33;8.33;;;;;;;;4953969;28;1617710;-58
2023/08/05 13:08:05;;;;;;;;;9.67;9.67;;;;;;;;5011438;28;51584;-58
2023/08/05 13:10:31;;;;;;;;;9.33;7.33;;;;;;;;3788443;28;35382152;-59
2023/08/05 13:12:56;;;;;;;;;5.33;5.33;;;;;;;;5011491;28;51741;-59
2023/08/05 13:15:21;;;;;;;;;3.67;3.67;;;;;;;;5011946;28;51018;-59
2023/08/05 13:17:47;;;;;;;;;6.00;5.33;;;;;;;;5010512;28;51142;-59
2023/08/05 13:20:12;;;;;;;;;5.33;5.33;;;;;;;;5012115;28;50879;-59
2023/08/05 13:22:37;;;;;;;;;5.00;5.00;;;;;;;;5011095;28;50998;-59
2023/08/05 13:25:02;;;;;;;;;6.00;5.00;;;;;;;;5011366;28;51165;-59
2023/08/05 13:27:28;;;;;;;;;6.67;5.33;;;;;;;;5011585;28;51272;-58
2023/08/05 13:29:53;;;;;;;;;3.33;3.00;;;;;;;;5011937;28;51046;-58
2023/08/05 13:32:18;;;;;;;;;5.33;5.00;;;;;;;;5011228;28;51005;-58
2023/08/05 13:34:43;;;;;;;;;3.67;3.67;;;;;;;;5012206;28;50950;-58
2023/08/05 13:37:08;;;;;;;;;6.67;6.33;;;;;;;;5013415;28;50995;-58
2023/08/05 13:39:34;;;;;;;;;3.67;3.67;;;;;;;;5013743;28;50920;-57
2023/08/05 13:42:02;;;;;;;;;2.00;2.00;;;;;;;;5014251;28;51127;-58
2023/08/05 13:44:27;;;;;;;;;2.00;2.00;;;;;;;;5013409;28;50995;-58
2023/08/05 13:46:53;;;;;;;;;2.00;2.00;;;;;;;;5014528;28;51015;-59
2023/08/05 13:49:18;;;;;;;;;2.33;2.33;;;;;;;;5014854;28;51171;-58
2023/08/05 13:51:43;;;;;;;;;0.00;0.00;;;;;;;;5013318;28;51982;-59
2023/08/05 13:54:10;;;;;;;;;2.00;1.33;;;;;;;;5014786;28;50973;-57
2023/08/05 13:56:35;;;;;;;;;3.67;3.67;;;;;;;;5014151;28;50969;-58
2023/08/05 13:59:01;;;;;;;;;2.00;2.00;;;;;;;;5014709;28;50790;-58
2023/08/05 14:01:26;;;;;;;;;2.00;2.00;;;;;;;;5014171;28;52010;-58
2023/08/05 14:03:51;;;;;;;;;1.67;1.00;;;;;;;;5014428;28;51035;-58
2023/08/05 14:06:17;;;;;;;;;1.67;1.67;;;;;;;;5014375;28;50973;-57
2023/08/05 14:08:42;;;;;;;;;1.00;1.00;;;;;;;;5014354;28;51240;-59
2023/08/05 14:11:07;;;;;;;;;1.00;1.00;;;;;;;;5013868;28;51844;-59
2023/08/05 14:13:33;;;;;;;;;3.67;2.00;;;;;;;;5014557;28;51024;-59
2023/08/05 14:15:58;;;;;;;;;1.00;1.00;;;;;;;;5011693;28;51453;-57
2023/08/05 14:18:25;;;;;;;;;1.00;1.00;;;;;;;;5014930;28;51284;-58
2023/08/05 14:20:52;;;;;;;;;2.00;2.00;;;;;;;;5013964;28;52355;-57
2023/08/05 14:23:17;;;;;;;;;2.00;2.00;;;;;;;;5014188;28;51072;-58
2023/08/05 14:25:45;;;;;;;;;1.67;1.67;;;;;;;;5014270;28;51179;-58
2023/08/05 14:28:10;;;;;;;;;1.33;1.33;;;;;;;;5014658;28;51289;-57
2023/08/05 14:30:37;;;;;;;;;1.00;1.00;;;;;;;;5013706;28;51211;-58
2023/08/05 14:33:02;;;;;;;;;0.33;0.33;;;;;;;;5014237;28;51142;-58
2023/08/05 14:35:30;;;;;;;;;0.67;0.67;;;;;;;;5013827;28;50919;-58
2023/08/05 14:37:55;;;;;;;;;1.00;1.00;;;;;;;;5014239;28;51038;-57
2023/08/05 14:40:20;;;;;;;;;1.00;1.00;;;;;;;;5012762;28;51803;-57
2023/08/05 14:42:45;;;;;;;;;1.33;1.33;;;;;;;;5013769;28;51197;-57
2023/08/05 14:45:11;;;;;;;;;1.00;1.00;;;;;;;;5014021;28;51128;-58
2023/08/05 14:47:36;;;;;;;;;1.67;1.67;;;;;;;;5013806;28;50936;-59
2023/08/05 14:50:01;;;;;;;;;1.67;1.67;;;;;;;;5013315;28;50995;-58
2023/08/05 14:52:26;;;;;;;;;1.67;1.67;;;;;;;;5013535;28;51297;-59
2023/08/05 14:54:53;;;;;;;;;1.00;1.00;;;;;;;;5013207;28;51737;-57
2023/08/05 14:57:18;;;;;;;;;1.33;1.00;;;;;;;;5013570;28;51394;-59
2023/08/05 14:59:43;;;;;;;;;0.67;0.67;;;;;;;;5013272;28;51946;-58
2023/08/05 15:02:09;;;;;;;;;2.00;2.00;;;;;;;;5013915;28;51042;-58
2023/08/05 15:04:34;;;;;;;;;1.00;1.00;;;;;;;;5013893;28;51090;-58
2023/08/05 15:06:59;;;;;;;;;2.00;2.00;;;;;;;;5013872;28;51010;-59
2023/08/05 15:09:25;;;;;;;;;4.67;4.00;;;;;;;;5012966;28;51314;-57
2023/08/05 15:11:50;;;;;;;;;2.67;2.00;;;;;;;;5013419;28;50972;-58
2023/08/05 15:14:15;;;;;;;;;1.67;1.67;;;;;;;;5013430;28;51133;-58
2023/08/05 15:16:40;;;;;;;;;3.00;3.00;;;;;;;;5013843;28;51111;-59
2023/08/05 15:19:05;;;;;;;;;5.00;4.00;;;;;;;;5012854;28;51605;-59
2023/08/05 15:21:32;;;;;;;;;3.00;1.00;;;;;;;;5013441;28;51002;-57
2023/08/05 15:23:57;;;;;;;;;1.00;1.00;;;;;;;;5013444;28;51015;-59
2023/08/05 15:26:22;;;;;;;;;2.33;1.67;;;;;;;;5013231;28;51065;-59
2023/08/05 15:28:47;;;;;;;;;2.33;2.33;;;;;;;;5012976;28;51016;-59
2023/08/05 15:31:17;;;;;;;;;2.33;2.00;;;;;;;;5012091;28;51019;-58
2023/08/05 15:33:42;;;;;;;;;2.00;2.00;;;;;;;;5013268;28;51137;-61
2023/08/05 15:36:15;;;;;;;;;1.67;1.00;;;;;;;;5011886;28;51421;-58
2023/08/05 15:38:40;;;;;;;;;1.33;1.33;;;;;;;;5013133;28;51977;-59
2023/08/05 15:41:05;;;;;;;;;1.67;1.67;;;;;;;;5012990;28;51050;-58
2023/08/05 15:45:14;;;;;;;;;;;;;;;;;;2421543;28;177985620;-59
2023/08/05 15:47:39;;;;;;;;;3.00;3.00;;;;;;;;5010433;28;51164;-58
2023/08/05 15:50:04;;;;;;;;;1.00;1.00;;;;;;;;5011705;28;51041;-59
2023/08/05 15:52:30;;;;;;;;;3.00;3.00;;;;;;;;5011235;28;51447;-58
2023/08/05 15:54:55;;;;;;;;;5.00;3.00;;;;;;;;5012606;28;51212;-58
2023/08/05 15:57:20;;;;;;;;;4.33;4.33;;;;;;;;5012269;28;50962;-57
2023/08/05 15:59:45;;;;;;;;;3.00;3.00;;;;;;;;5012663;28;51060;-59
2023/08/05 16:02:10;;;;;;;;;4.00;3.67;;;;;;;;5012767;28;51015;-59
2023/08/05 16:13:14;;;;;;;;;;;;;;;;;;4257087;28;279080284;-59
2023/08/05 16:17:48;;;;;;;;;4.00;4.00;;;;;;;;2;234069651;234069651;-58